Cost, Texas
Current Conditions -  °F | °C
As of 4:51 PM on Saturday 25 Oct 2014 (Local Time) from KBAZ Reporting Station
Clear Clear  
Wind Chill: 88°   Ceiling: Unl
Heat Index: 88°   Visibility: 10mi
Dew Point: 55°   Wind: 8mph
Humidity: 32%   Direction: 170°S
Pressure: 30.07"   Gusts: NA
Location:  29.44°N, 97.53°W
Report Text: KBAZ 252151Z 17007KT 10SM CLR 31/13 A3007 RMK AO2 SLP176 T03110128
Loading
Personal Weather Stations






























Interactive Weather Map
Tropical Storm Tracking
New forecast layout! Learn more

10-Day Weather Forecast

Advertisements
Track Severe Weather on mobile